Awendaw, South Carolina
Current Conditions -  °F | °C
As of 9:55 PM on Monday 22 Dec 2014 (Local Time) from KLRO Reporting Station
Moderate Fog Moderate Fog  
Wind Chill: 42°   Ceiling: 100
Heat Index: 46°   Visibility: 0.5mi
Dew Point: 46°   Wind: 8mph
Humidity: 100%   Direction: 10°N
Pressure: 30"   Gusts: NA
Location:  33.04°N, 79.61°W
Report Text: KLRO 230255Z AUTO 01007KT 1/2SM FG OVC001 08/08 A3000 RMK AO2
Loading
Personal Weather Stations






























Interactive Weather Map New forecast layout! Learn more

10-Day Weather Forecast

Advertisements
Track Severe Weather on mobile